sensor_id;sensor_type;location;lat;lon;timestamp;temperature;humidity
2767;DHT22;1391;46.742;11.636;2022-12-07T07:39:39;-1.50;99.90
2767;DHT22;1391;46.742;11.636;2022-12-07T07:42:06;-1.20;99.90
2767;DHT22;1391;46.742;11.636;2022-12-07T07:44:33;-1.40;99.90
2767;DHT22;1391;46.742;11.636;2022-12-07T07:47:01;-0.90;99.90
2767;DHT22;1391;46.742;11.636;2022-12-07T07:49:28;-1.40;99.90
2767;DHT22;1391;46.742;11.636;2022-12-07T07:51:55;-1.40;99.90
2767;DHT22;1391;46.742;11.636;2022-12-07T07:54:23;-1.20;99.90
2767;DHT22;1391;46.742;11.636;2022-12-07T07:56:52;-1.20;99.90
2767;DHT22;1391;46.742;11.636;2022-12-07T07:59:19;-1.20;99.90
2767;DHT22;1391;46.742;11.636;2022-12-07T08:01:46;-1.20;99.90
2767;DHT22;1391;46.742;11.636;2022-12-07T08:04:14;-1.20;99.90
2767;DHT22;1391;46.742;11.636;2022-12-07T08:06:41;-0.60;99.90
2767;DHT22;1391;46.742;11.636;2022-12-07T08:09:09;-0.90;99.90
2767;DHT22;1391;46.742;11.636;2022-12-07T08:11:36;-1.00;99.90
2767;DHT22;1391;46.742;11.636;2022-12-07T08:14:05;-1.00;99.90
2767;DHT22;1391;46.742;11.636;2022-12-07T08:16:32;-0.40;99.90
2767;DHT22;1391;46.742;11.636;2022-12-07T08:18:59;-0.30;99.90
2767;DHT22;1391;46.742;11.636;2022-12-07T08:21:26;-0.60;99.90
2767;DHT22;1391;46.742;11.636;2022-12-07T08:23:53;-0.40;99.90
2767;DHT22;1391;46.742;11.636;2022-12-07T08:26:20;-0.30;99.90
2767;DHT22;1391;46.742;11.636;2022-12-07T08:28:47;0.20;99.90
2767;DHT22;1391;46.742;11.636;2022-12-07T08:31:17;0.40;99.90
2767;DHT22;1391;46.742;11.636;2022-12-07T08:33:45;0.20;99.90
2767;DHT22;1391;46.742;11.636;2022-12-07T08:36:12;0.80;99.90
2767;DHT22;1391;46.742;11.636;2022-12-07T08:38:41;0.50;99.90
2767;DHT22;1391;46.742;11.636;2022-12-07T08:41:08;1.00;99.90
2767;DHT22;1391;46.742;11.636;2022-12-07T08:43:36;1.00;99.90
2767;DHT22;1391;46.742;11.636;2022-12-07T08:46:09;1.00;99.90
2767;DHT22;1391;46.742;11.636;2022-12-07T08:48:42;1.20;99.90
2767;DHT22;1391;46.742;11.636;2022-12-07T08:51:11;1.10;99.90
2767;DHT22;1391;46.742;11.636;2022-12-07T08:53:38;0.80;99.90
2767;DHT22;1391;46.742;11.636;2022-12-07T08:56:07;1.30;99.90
2767;DHT22;1391;46.742;11.636;2022-12-07T08:58:35;1.40;99.90
2767;DHT22;1391;46.742;11.636;2022-12-07T09:01:03;1.70;99.90
2767;DHT22;1391;46.742;11.636;2022-12-07T09:03:31;1.60;99.90
2767;DHT22;1391;46.742;11.636;2022-12-07T09:06:00;1.90;99.90
2767;DHT22;1391;46.742;11.636;2022-12-07T09:08:31;1.80;98.40
2767;DHT22;1391;46.742;11.636;2022-12-07T09:11:00;1.80;97.00
2767;DHT22;1391;46.742;11.636;2022-12-07T09:13:27;1.80;95.30
2767;DHT22;1391;46.742;11.636;2022-12-07T09:15:55;1.50;93.40
2767;DHT22;1391;46.742;11.636;2022-12-07T09:18:22;2.00;91.10
2767;DHT22;1391;46.742;11.636;2022-12-07T09:20:51;2.00;91.80
2767;DHT22;1391;46.742;11.636;2022-12-07T09:23:19;2.40;93.60
2767;DHT22;1391;46.742;11.636;2022-12-07T09:25:46;2.40;89.00
2767;DHT22;1391;46.742;11.636;2022-12-07T09:28:14;2.20;87.10
2767;DHT22;1391;46.742;11.636;2022-12-07T09:30:45;2.60;85.30
2767;DHT22;1391;46.742;11.636;2022-12-07T09:33:13;2.50;79.20
2767;DHT22;1391;46.742;11.636;2022-12-07T09:35:44;2.60;80.80
2767;DHT22;1391;46.742;11.636;2022-12-07T09:38:12;3.30;85.40
2767;DHT22;1391;46.742;11.636;2022-12-07T09:40:41;3.20;79.40
2767;DHT22;1391;46.742;11.636;2022-12-07T09:43:13;3.50;74.60
2767;DHT22;1391;46.742;11.636;2022-12-07T09:45:42;3.00;75.60
2767;DHT22;1391;46.742;11.636;2022-12-07T09:48:17;3.60;82.30
2767;DHT22;1391;46.742;11.636;2022-12-07T09:50:46;3.40;77.50
2767;DHT22;1391;46.742;11.636;2022-12-07T09:53:16;3.10;75.50
2767;DHT22;1391;46.742;11.636;2022-12-07T09:55:53;3.30;74.60
2767;DHT22;1391;46.742;11.636;2022-12-07T09:58:23;2.90;80.90
2767;DHT22;1391;46.742;11.636;2022-12-07T10:00:53;3.70;80.70
2767;DHT22;1391;46.742;11.636;2022-12-07T10:03:23;3.70;77.90
2767;DHT22;1391;46.742;11.636;2022-12-07T10:05:51;3.40;73.80
2767;DHT22;1391;46.742;11.636;2022-12-07T10:08:19;4.00;78.20
2767;DHT22;1391;46.742;11.636;2022-12-07T10:10:50;3.70;72.90
2767;DHT22;1391;46.742;11.636;2022-12-07T10:13:21;3.90;75.80
2767;DHT22;1391;46.742;11.636;2022-12-07T10:15:52;4.20;77.10
2767;DHT22;1391;46.742;11.636;2022-12-07T10:18:26;4.20;72.50
2767;DHT22;1391;46.742;11.636;2022-12-07T10:21:11;3.70;74.10
2767;DHT22;1391;46.742;11.636;2022-12-07T10:23:41;4.10;77.10
2767;DHT22;1391;46.742;11.636;2022-12-07T10:26:28;4.10;72.20
2767;DHT22;1391;46.742;11.636;2022-12-07T10:29:02;3.60;68.20
2767;DHT22;1391;46.742;11.636;2022-12-07T10:31:40;4.10;76.20
2767;DHT22;1391;46.742;11.636;2022-12-07T10:34:21;4.40;72.80
2767;DHT22;1391;46.742;11.636;2022-12-07T10:36:50;4.30;71.70
2767;DHT22;1391;46.742;11.636;2022-12-07T10:39:20;4.50;71.80
2767;DHT22;1391;46.742;11.636;2022-12-07T10:41:53;4.70;73.30
2767;DHT22;1391;46.742;11.636;2022-12-07T10:44:26;4.90;74.50
2767;DHT22;1391;46.742;11.636;2022-12-07T10:47:17;4.40;75.60
2767;DHT22;1391;46.742;11.636;2022-12-07T10:50:01;4.80;74.70
2767;DHT22;1391;46.742;11.636;2022-12-07T10:52:53;4.50;75.50
2767;DHT22;1391;46.742;11.636;2022-12-07T10:55:39;4.70;75.30
2767;DHT22;1391;46.742;11.636;2022-12-07T10:58:24;5.10;77.00
2767;DHT22;1391;46.742;11.636;2022-12-07T11:01:10;4.80;75.00
2767;DHT22;1391;46.742;11.636;2022-12-07T11:03:50;4.90;75.10
2767;DHT22;1391;46.742;11.636;2022-12-07T11:06:29;5.50;72.20
2767;DHT22;1391;46.742;11.636;2022-12-07T11:09:12;5.30;74.50
2767;DHT22;1391;46.742;11.636;2022-12-07T11:11:57;5.50;74.50
2767;DHT22;1391;46.742;11.636;2022-12-07T11:14:35;5.20;72.30
2767;DHT22;1391;46.742;11.636;2022-12-07T11:17:14;5.50;72.80
2767;DHT22;1391;46.742;11.636;2022-12-07T11:19:58;5.30;72.70
2767;DHT22;1391;46.742;11.636;2022-12-07T11:22:36;5.20;71.10
2767;DHT22;1391;46.742;11.636;2022-12-07T11:25:22;5.20;71.50
2767;DHT22;1391;46.742;11.636;2022-12-07T11:28:12;5.10;72.30
2767;DHT22;1391;46.742;11.636;2022-12-07T11:30:53;5.10;71.90
2767;DHT22;1391;46.742;11.636;2022-12-07T11:33:29;5.20;71.80
2767;DHT22;1391;46.742;11.636;2022-12-07T11:36:16;5.20;72.20
2767;DHT22;1391;46.742;11.636;2022-12-07T11:38:54;5.30;72.90
2767;DHT22;1391;46.742;11.636;2022-12-07T11:41:26;5.20;73.50
2767;DHT22;1391;46.742;11.636;2022-12-07T11:43:59;5.00;73.80
2767;DHT22;1391;46.742;11.636;2022-12-07T11:46:39;5.20;72.30
2767;DHT22;1391;46.742;11.636;2022-12-07T11:49:17;5.80;72.90
2767;DHT22;1391;46.742;11.636;2022-12-07T11:51:50;5.70;73.10
2767;DHT22;1391;46.742;11.636;2022-12-07T11:54:23;5.50;73.20
2767;DHT22;1391;46.742;11.636;2022-12-07T11:56:54;5.60;71.90
2767;DHT22;1391;46.742;11.636;2022-12-07T11:59:27;5.20;72.70
2767;DHT22;1391;46.742;11.636;2022-12-07T12:02:02;5.10;74.30
2767;DHT22;1391;46.742;11.636;2022-12-07T12:04:50;5.00;74.50
2767;DHT22;1391;46.742;11.636;2022-12-07T12:07:23;4.70;75.10
2767;DHT22;1391;46.742;11.636;2022-12-07T12:09:55;4.60;77.40
2767;DHT22;1391;46.742;11.636;2022-12-07T12:16:05;4.50;76.00
2767;DHT22;1391;46.742;11.636;2022-12-07T12:18:51;4.00;77.80
2767;DHT22;1391;46.742;11.636;2022-12-07T12:21:27;4.30;79.40
2767;DHT22;1391;46.742;11.636;2022-12-07T12:23:58;4.30;80.70
2767;DHT22;1391;46.742;11.636;2022-12-07T12:26:28;3.50;81.70
2767;DHT22;1391;46.742;11.636;2022-12-07T12:28:59;3.50;83.00
2767;DHT22;1391;46.742;11.636;2022-12-07T12:31:37;3.40;83.50
2767;DHT22;1391;46.742;11.636;2022-12-07T12:34:38;3.20;84.70
2767;DHT22;1391;46.742;11.636;2022-12-07T12:37:45;3.10;86.30
2767;DHT22;1391;46.742;11.636;2022-12-07T12:40:40;3.30;87.70
2767;DHT22;1391;46.742;11.636;2022-12-07T12:43:44;3.10;88.30
2767;DHT22;1391;46.742;11.636;2022-12-07T12:46:48;3.00;88.80
2767;DHT22;1391;46.742;11.636;2022-12-07T12:50:11;3.20;89.80
2767;DHT22;1391;46.742;11.636;2022-12-07T12:52:54;3.10;90.20
2767;DHT22;1391;46.742;11.636;2022-12-07T12:58:47;2.90;91.00
2767;DHT22;1391;46.742;11.636;2022-12-07T13:01:44;2.80;91.30
2767;DHT22;1391;46.742;11.636;2022-12-07T13:04:39;2.90;91.40
2767;DHT22;1391;46.742;11.636;2022-12-07T13:10:43;2.80;91.90
2767;DHT22;1391;46.742;11.636;2022-12-07T13:13:35;2.70;92.20
2767;DHT22;1391;46.742;11.636;2022-12-07T13:16:37;2.80;92.40
2767;DHT22;1391;46.742;11.636;2022-12-07T13:22:49;2.70;93.20
2767;DHT22;1391;46.742;11.636;2022-12-07T13:25:38;2.70;93.70
2767;DHT22;1391;46.742;11.636;2022-12-07T13:28:15;2.50;94.20
2767;DHT22;1391;46.742;11.636;2022-12-07T13:30:50;2.60;93.90
2767;DHT22;1391;46.742;11.636;2022-12-07T13:33:27;2.60;93.80
2767;DHT22;1391;46.742;11.636;2022-12-07T13:35:56;2.50;94.10
2767;DHT22;1391;46.742;11.636;2022-12-07T13:38:28;2.60;94.20
2767;DHT22;1391;46.742;11.636;2022-12-07T13:41:02;2.50;94.60
2767;DHT22;1391;46.742;11.636;2022-12-07T13:43:31;2.50;94.90
2767;DHT22;1391;46.742;11.636;2022-12-07T13:45:59;2.50;94.60
2767;DHT22;1391;46.742;11.636;2022-12-07T13:48:31;2.60;94.60
2767;DHT22;1391;46.742;11.636;2022-12-07T13:51:00;2.50;94.70
2767;DHT22;1391;46.742;11.636;2022-12-07T13:53:29;2.50;95.00
2767;DHT22;1391;46.742;11.636;2022-12-07T13:55:57;2.00;94.10
2767;DHT22;1391;46.742;11.636;2022-12-07T13:58:27;1.90;94.60
2767;DHT22;1391;46.742;11.636;2022-12-07T14:00:57;1.90;95.50
2767;DHT22;1391;46.742;11.636;2022-12-07T14:03:32;1.80;95.50
2767;DHT22;1391;46.742;11.636;2022-12-07T14:06:21;2.10;95.80
2767;DHT22;1391;46.742;11.636;2022-12-07T14:09:07;2.00;95.90
2767;DHT22;1391;46.742;11.636;2022-12-07T14:11:35;1.70;96.10
2767;DHT22;1391;46.742;11.636;2022-12-07T14:14:06;2.20;96.30
2767;DHT22;1391;46.742;11.636;2022-12-07T14:16:38;2.10;95.70
2767;DHT22;1391;46.742;11.636;2022-12-07T14:19:40;1.70;95.50
2767;DHT22;1391;46.742;11.636;2022-12-07T14:22:20;1.70;95.70
2767;DHT22;1391;46.742;11.636;2022-12-07T14:24:50;2.10;96.00
2767;DHT22;1391;46.742;11.636;2022-12-07T14:27:18;2.20;95.70
2767;DHT22;1391;46.742;11.636;2022-12-07T14:29:48;2.10;95.60
2767;DHT22;1391;46.742;11.636;2022-12-07T14:32:22;1.80;94.80
2767;DHT22;1391;46.742;11.636;2022-12-07T14:34:59;1.90;94.30
2767;DHT22;1391;46.742;11.636;2022-12-07T14:37:29;1.80;95.00
2767;DHT22;1391;46.742;11.636;2022-12-07T14:39:56;1.90;95.90
2767;DHT22;1391;46.742;11.636;2022-12-07T14:42:26;2.20;96.30
2767;DHT22;1391;46.742;11.636;2022-12-07T14:44:57;2.10;96.20
2767;DHT22;1391;46.742;11.636;2022-12-07T14:47:25;2.10;96.20
2767;DHT22;1391;46.742;11.636;2022-12-07T14:49:53;2.10;96.30
2767;DHT22;1391;46.742;11.636;2022-12-07T14:52:23;1.80;95.70
2767;DHT22;1391;46.742;11.636;2022-12-07T14:54:51;2.10;95.10
2767;DHT22;1391;46.742;11.636;2022-12-07T14:57:19;1.70;95.30
2767;DHT22;1391;46.742;11.636;2022-12-07T14:59:47;1.90;96.10
2767;DHT22;1391;46.742;11.636;2022-12-07T15:02:15;1.80;95.00
2767;DHT22;1391;46.742;11.636;2022-12-07T15:04:43;1.30;96.50
2767;DHT22;1391;46.742;11.636;2022-12-07T15:07:15;1.30;97.60
2767;DHT22;1391;46.742;11.636;2022-12-07T15:09:45;1.50;97.40
2767;DHT22;1391;46.742;11.636;2022-12-07T15:12:12;1.20;98.40
2767;DHT22;1391;46.742;11.636;2022-12-07T15:14:39;1.20;99.90
2767;DHT22;1391;46.742;11.636;2022-12-07T15:17:10;0.90;99.90
2767;DHT22;1391;46.742;11.636;2022-12-07T15:19:39;0.80;99.90
2767;DHT22;1391;46.742;11.636;2022-12-07T15:22:07;0.50;99.90
2767;DHT22;1391;46.742;11.636;2022-12-07T15:24:36;0.70;99.90
2767;DHT22;1391;46.742;11.636;2022-12-07T15:27:03;1.00;99.90
2767;DHT22;1391;46.742;11.636;2022-12-07T15:29:31;1.10;99.90
2767;DHT22;1391;46.742;11.636;2022-12-07T15:31:58;0.80;99.90
2767;DHT22;1391;46.742;11.636;2022-12-07T15:34:26;0.90;99.90
2767;DHT22;1391;46.742;11.636;2022-12-07T15:36:55;0.90;99.90
2767;DHT22;1391;46.742;11.636;2022-12-07T15:39:22;0.20;99.90
2767;DHT22;1391;46.742;11.636;2022-12-07T15:41:49;0.30;99.90
2767;DHT22;1391;46.742;11.636;2022-12-07T15:44:17;0.60;99.90
2767;DHT22;1391;46.742;11.636;2022-12-07T15:47:02;0.60;99.90
2767;DHT22;1391;46.742;11.636;2022-12-07T15:49:30;0.30;99.90
2767;DHT22;1391;46.742;11.636;2022-12-07T15:51:59;0.20;99.90
2767;DHT22;1391;46.742;11.636;2022-12-07T15:54:28;0.30;99.90
2767;DHT22;1391;46.742;11.636;2022-12-07T15:56:56;0.20;99.90
2767;DHT22;1391;46.742;11.636;2022-12-07T15:59:25;0.30;99.90
2767;DHT22;1391;46.742;11.636;2022-12-07T16:01:53;0.20;99.90
2767;DHT22;1391;46.742;11.636;2022-12-07T16:04:20;0.50;99.90
2767;DHT22;1391;46.742;11.636;2022-12-07T16:06:48;0.70;99.90
2767;DHT22;1391;46.742;11.636;2022-12-07T16:09:17;0.20;99.90
2767;DHT22;1391;46.742;11.636;2022-12-07T16:11:45;0.30;99.90
2767;DHT22;1391;46.742;11.636;2022-12-07T16:14:13;0.20;99.90
2767;DHT22;1391;46.742;11.636;2022-12-07T16:16:40;0.50;99.90
2767;DHT22;1391;46.742;11.636;2022-12-07T16:19:08;0.80;99.90
2767;DHT22;1391;46.742;11.636;2022-12-07T16:21:36;0.50;99.90
2767;DHT22;1391;46.742;11.636;2022-12-07T16:24:04;0.80;99.90
2767;DHT22;1391;46.742;11.636;2022-12-07T16:26:34;0.50;99.90
2767;DHT22;1391;46.742;11.636;2022-12-07T16:29:02;0.70;99.90
2767;DHT22;1391;46.742;11.636;2022-12-07T16:31:31;0.20;99.90
2767;DHT22;1391;46.742;11.636;2022-12-07T16:33:59;-0.20;99.90
2767;DHT22;1391;46.742;11.636;2022-12-07T16:36:26;-0.20;99.90
2767;DHT22;1391;46.742;11.636;2022-12-07T16:38:53;0.30;99.90
2767;DHT22;1391;46.742;11.636;2022-12-07T16:41:21;0.00;99.90
2767;DHT22;1391;46.742;11.636;2022-12-07T16:43:50;-0.30;99.90
2767;DHT22;1391;46.742;11.636;2022-12-07T16:46:17;0.20;99.90
2767;DHT22;1391;46.742;11.636;2022-12-07T16:48:44;-0.20;99.90
2767;DHT22;1391;46.742;11.636;2022-12-07T16:51:13;0.30;99.90
2767;DHT22;1391;46.742;11.636;2022-12-07T16:53:41;0.20;99.90
2767;DHT22;1391;46.742;11.636;2022-12-07T16:56:10;0.30;99.90
2767;DHT22;1391;46.742;11.636;2022-12-07T16:58:37;0.00;99.90
2767;DHT22;1391;46.742;11.636;2022-12-07T17:01:14;-0.10;99.90
2767;DHT22;1391;46.742;11.636;2022-12-07T17:03:43;0.10;99.90
2767;DHT22;1391;46.742;11.636;2022-12-07T17:06:12;0.20;99.90
2767;DHT22;1391;46.742;11.636;2022-12-07T17:08:41;0.30;99.90
2767;DHT22;1391;46.742;11.636;2022-12-07T17:11:12;0.20;99.90
2767;DHT22;1391;46.742;11.636;2022-12-07T17:13:41;0.20;99.90
2767;DHT22;1391;46.742;11.636;2022-12-07T17:16:27;-0.40;99.90
2767;DHT22;1391;46.742;11.636;2022-12-07T17:18:56;-0.40;99.90
2767;DHT22;1391;46.742;11.636;2022-12-07T17:21:28;-0.30;99.90
2767;DHT22;1391;46.742;11.636;2022-12-07T17:23:58;0.10;99.90
2767;DHT22;1391;46.742;11.636;2022-12-07T17:26:26;0.20;99.90
2767;DHT22;1391;46.742;11.636;2022-12-07T17:28:54;0.20;99.90
2767;DHT22;1391;46.742;11.636;2022-12-07T17:31:22;-0.20;99.90
2767;DHT22;1391;46.742;11.636;2022-12-07T17:33:51;-0.10;99.90
2767;DHT22;1391;46.742;11.636;2022-12-07T17:36:21;-0.40;99.90
2767;DHT22;1391;46.742;11.636;2022-12-07T17:38:49;-0.50;99.90
2767;DHT22;1391;46.742;11.636;2022-12-07T17:41:19;0.00;99.90
2767;DHT22;1391;46.742;11.636;2022-12-07T17:44:09;-0.40;99.90
2767;DHT22;1391;46.742;11.636;2022-12-07T17:46:37;-0.40;99.90
2767;DHT22;1391;46.742;11.636;2022-12-07T17:49:07;-0.60;99.90
2767;DHT22;1391;46.742;11.636;2022-12-07T17:51:35;-0.40;99.90
2767;DHT22;1391;46.742;11.636;2022-12-07T17:54:20;-0.60;99.90
2767;DHT22;1391;46.742;11.636;2022-12-07T17:56:47;-0.40;99.90
2767;DHT22;1391;46.742;11.636;2022-12-07T17:59:15;-0.40;99.90
2767;DHT22;1391;46.742;11.636;2022-12-07T18:01:43;-0.40;99.90
2767;DHT22;1391;46.742;11.636;2022-12-07T18:04:12;-0.20;99.90
2767;DHT22;1391;46.742;11.636;2022-12-07T18:06:39;-0.40;99.90
2767;DHT22;1391;46.742;11.636;2022-12-07T18:09:07;-0.40;99.90
2767;DHT22;1391;46.742;11.636;2022-12-07T18:11:35;-0.40;99.90
2767;DHT22;1391;46.742;11.636;2022-12-07T18:14:03;-0.40;99.90
2767;DHT22;1391;46.742;11.636;2022-12-07T18:16:31;-0.40;99.90
2767;DHT22;1391;46.742;11.636;2022-12-07T18:19:00;-0.60;99.90
2767;DHT22;1391;46.742;11.636;2022-12-07T18:21:31;-0.60;99.90
2767;DHT22;1391;46.742;11.636;2022-12-07T18:24:00;-0.60;99.90
2767;DHT22;1391;46.742;11.636;2022-12-07T18:26:29;-0.40;99.90
2767;DHT22;1391;46.742;11.636;2022-12-07T18:28:58;-0.70;99.90
2767;DHT22;1391;46.742;11.636;2022-12-07T18:31:25;-0.70;99.90
2767;DHT22;1391;46.742;11.636;2022-12-07T18:33:52;-0.70;99.90
2767;DHT22;1391;46.742;11.636;2022-12-07T18:36:21;-0.70;99.90
2767;DHT22;1391;46.742;11.636;2022-12-07T18:38:50;-0.70;99.90
2767;DHT22;1391;46.742;11.636;2022-12-07T18:41:17;-0.40;99.90
2767;DHT22;1391;46.742;11.636;2022-12-07T18:43:45;-0.40;99.90
2767;DHT22;1391;46.742;11.636;2022-12-07T18:46:13;-0.90;99.90
2767;DHT22;1391;46.742;11.636;2022-12-07T18:48:42;-0.90;99.90
2767;DHT22;1391;46.742;11.636;2022-12-07T18:51:12;-0.90;99.90
2767;DHT22;1391;46.742;11.636;2022-12-07T18:53:40;-0.80;99.90
2767;DHT22;1391;46.742;11.636;2022-12-07T18:56:11;-1.00;99.90
2767;DHT22;1391;46.742;11.636;2022-12-07T18:58:39;-1.20;99.90
2767;DHT22;1391;46.742;11.636;2022-12-07T19:01:28;-0.90;99.90
2767;DHT22;1391;46.742;11.636;2022-12-07T19:03:56;-0.90;99.90
2767;DHT22;1391;46.742;11.636;2022-12-07T19:06:23;-0.90;99.90
2767;DHT22;1391;46.742;11.636;2022-12-07T19:08:51;-0.90;99.90
2767;DHT22;1391;46.742;11.636;2022-12-07T19:11:21;-0.90;99.90
2767;DHT22;1391;46.742;11.636;2022-12-07T19:14:07;-0.90;99.90
2767;DHT22;1391;46.742;11.636;2022-12-07T19:16:40;-1.40;99.90
2767;DHT22;1391;46.742;11.636;2022-12-07T19:19:07;-0.90;99.90
2767;DHT22;1391;46.742;11.636;2022-12-07T19:21:35;-0.90;99.90
2767;DHT22;1391;46.742;11.636;2022-12-07T19:24:02;-1.40;99.90
2767;DHT22;1391;46.742;11.636;2022-12-07T19:26:32;-1.50;99.90
2767;DHT22;1391;46.742;11.636;2022-12-07T19:28:59;-1.00;99.90
2767;DHT22;1391;46.742;11.636;2022-12-07T19:31:26;-0.90;99.90
2767;DHT22;1391;46.742;11.636;2022-12-07T19:33:54;-0.80;99.90
2767;DHT22;1391;46.742;11.636;2022-12-07T19:36:25;-1.20;99.90
2767;DHT22;1391;46.742;11.636;2022-12-07T19:38:52;-1.30;99.90
2767;DHT22;1391;46.742;11.636;2022-12-07T19:41:20;-1.20;99.90
2767;DHT22;1391;46.742;11.636;2022-12-07T19:44:06;-1.40;99.90
2767;DHT22;1391;46.742;11.636;2022-12-07T19:46:36;-1.10;99.90
2767;DHT22;1391;46.742;11.636;2022-12-07T19:49:04;-0.90;99.90
2767;DHT22;1391;46.742;11.636;2022-12-07T19:51:32;-0.80;99.90
2767;DHT22;1391;46.742;11.636;2022-12-07T19:54:00;-1.10;99.90
2767;DHT22;1391;46.742;11.636;2022-12-07T19:56:29;-0.90;99.90
2767;DHT22;1391;46.742;11.636;2022-12-07T19:58:58;-0.90;99.90
2767;DHT22;1391;46.742;11.636;2022-12-07T20:01:27;-1.50;99.90
2767;DHT22;1391;46.742;11.636;2022-12-07T20:03:55;-0.90;99.90
2767;DHT22;1391;46.742;11.636;2022-12-07T20:06:23;-0.90;99.90
2767;DHT22;1391;46.742;11.636;2022-12-07T20:08:50;-1.50;99.90
2767;DHT22;1391;46.742;11.636;2022-12-07T20:11:19;-1.20;99.90
2767;DHT22;1391;46.742;11.636;2022-12-07T20:14:05;-1.50;99.90
2767;DHT22;1391;46.742;11.636;2022-12-07T20:16:34;-1.90;99.90
2767;DHT22;1391;46.742;11.636;2022-12-07T20:19:02;-1.70;99.90
2767;DHT22;1391;46.742;11.636;2022-12-07T20:21:29;-1.70;99.90
2767;DHT22;1391;46.742;11.636;2022-12-07T20:23:59;-1.20;99.90
2767;DHT22;1391;46.742;11.636;2022-12-07T20:26:27;-1.20;99.90
2767;DHT22;1391;46.742;11.636;2022-12-07T20:28:54;-0.90;99.90
2767;DHT22;1391;46.742;11.636;2022-12-07T20:31:22;-0.90;99.90
2767;DHT22;1391;46.742;11.636;2022-12-07T20:33:51;-1.70;99.90
2767;DHT22;1391;46.742;11.636;2022-12-07T20:36:18;-1.70;99.90
2767;DHT22;1391;46.742;11.636;2022-12-07T20:38:45;-1.50;99.90
2767;DHT22;1391;46.742;11.636;2022-12-07T20:41:13;-1.20;99.90
2767;DHT22;1391;46.742;11.636;2022-12-07T20:43:54;-1.20;99.90
2767;DHT22;1391;46.742;11.636;2022-12-07T20:46:22;-1.50;99.90
2767;DHT22;1391;46.742;11.636;2022-12-07T20:48:51;-1.20;99.90
2767;DHT22;1391;46.742;11.636;2022-12-07T20:51:19;-1.50;99.90
2767;DHT22;1391;46.742;11.636;2022-12-07T20:53:46;-1.20;99.90
2767;DHT22;1391;46.742;11.636;2022-12-07T20:56:18;-1.60;99.90
2767;DHT22;1391;46.742;11.636;2022-12-07T20:58:46;-1.70;99.90
2767;DHT22;1391;46.742;11.636;2022-12-07T21:01:14;-1.60;99.90
2767;DHT22;1391;46.742;11.636;2022-12-07T21:03:43;-1.50;99.90
2767;DHT22;1391;46.742;11.636;2022-12-07T21:06:14;-1.90;99.90
2767;DHT22;1391;46.742;11.636;2022-12-07T21:08:45;-1.80;99.90
2767;DHT22;1391;46.742;11.636;2022-12-07T21:11:15;-1.60;99.90
2767;DHT22;1391;46.742;11.636;2022-12-07T21:13:42;-1.70;99.90
2767;DHT22;1391;46.742;11.636;2022-12-07T21:16:11;-1.80;99.90
2767;DHT22;1391;46.742;11.636;2022-12-07T21:18:40;-1.70;99.90
2767;DHT22;1391;46.742;11.636;2022-12-07T21:21:10;-1.90;99.90
2767;DHT22;1391;46.742;11.636;2022-12-07T21:23:42;-1.90;99.90
2767;DHT22;1391;46.742;11.636;2022-12-07T21:26:10;-2.00;99.90
2767;DHT22;1391;46.742;11.636;2022-12-07T21:28:40;-1.60;99.90
2767;DHT22;1391;46.742;11.636;2022-12-07T21:31:08;-1.50;99.90
2767;DHT22;1391;46.742;11.636;2022-12-07T21:33:36;-1.40;99.90
2767;DHT22;1391;46.742;11.636;2022-12-07T21:36:05;-1.70;99.90
2767;DHT22;1391;46.742;11.636;2022-12-07T21:38:34;-1.80;99.90
2767;DHT22;1391;46.742;11.636;2022-12-07T21:41:11;-1.70;99.90
2767;DHT22;1391;46.742;11.636;2022-12-07T21:43:40;-1.80;99.90
2767;DHT22;1391;46.742;11.636;2022-12-07T21:46:08;-1.70;99.90
2767;DHT22;1391;46.742;11.636;2022-12-07T21:48:35;-1.70;99.90
2767;DHT22;1391;46.742;11.636;2022-12-07T21:51:04;-1.70;99.90
2767;DHT22;1391;46.742;11.636;2022-12-07T21:53:33;-1.80;99.90
2767;DHT22;1391;46.742;11.636;2022-12-07T21:56:01;-1.70;99.90
2767;DHT22;1391;46.742;11.636;2022-12-07T21:58:31;-1.60;99.90
2767;DHT22;1391;46.742;11.636;2022-12-07T22:00:58;-1.50;99.90
2767;DHT22;1391;46.742;11.636;2022-12-07T22:03:25;-1.80;99.90
2767;DHT22;1391;46.742;11.636;2022-12-07T22:05:58;-1.70;99.90
2767;DHT22;1391;46.742;11.636;2022-12-07T22:08:28;-1.80;99.90
2767;DHT22;1391;46.742;11.636;2022-12-07T22:11:00;-1.50;99.90
2767;DHT22;1391;46.742;11.636;2022-12-07T22:13:27;-1.70;99.90
2767;DHT22;1391;46.742;11.636;2022-12-07T22:16:18;-1.90;99.90
2767;DHT22;1391;46.742;11.636;2022-12-07T22:18:44;-2.00;99.90
2767;DHT22;1391;46.742;11.636;2022-12-07T22:21:12;-2.40;99.90
2767;DHT22;1391;46.742;11.636;2022-12-07T22:23:39;-1.90;99.90
2767;DHT22;1391;46.742;11.636;2022-12-07T22:26:07;-1.90;99.90
2767;DHT22;1391;46.742;11.636;2022-12-07T22:28:36;-1.70;99.90
2767;DHT22;1391;46.742;11.636;2022-12-07T22:31:05;-1.70;99.90
2767;DHT22;1391;46.742;11.636;2022-12-07T22:33:34;-1.70;99.90
2767;DHT22;1391;46.742;11.636;2022-12-07T22:36:02;-1.90;99.90
2767;DHT22;1391;46.742;11.636;2022-12-07T22:38:30;-1.90;99.90
2767;DHT22;1391;46.742;11.636;2022-12-07T22:40:58;-2.00;99.90
2767;DHT22;1391;46.742;11.636;2022-12-07T22:43:25;-2.00;99.90
2767;DHT22;1391;46.742;11.636;2022-12-07T22:45:56;-1.90;99.90
2767;DHT22;1391;46.742;11.636;2022-12-07T22:48:25;-2.00;99.90
2767;DHT22;1391;46.742;11.636;2022-12-07T22:50:54;-1.70;99.90
2767;DHT22;1391;46.742;11.636;2022-12-07T22:53:23;-1.80;99.90
2767;DHT22;1391;46.742;11.636;2022-12-07T22:55:51;-1.70;99.90
2767;DHT22;1391;46.742;11.636;2022-12-07T22:58:18;-1.80;99.90
2767;DHT22;1391;46.742;11.636;2022-12-07T23:00:48;-2.40;99.90
2767;DHT22;1391;46.742;11.636;2022-12-07T23:03:15;-1.90;99.90
2767;DHT22;1391;46.742;11.636;2022-12-07T23:05:42;-1.90;99.90
2767;DHT22;1391;46.742;11.636;2022-12-07T23:08:12;-1.90;99.90
2767;DHT22;1391;46.742;11.636;2022-12-07T23:10:41;-1.90;99.90
2767;DHT22;1391;46.742;11.636;2022-12-07T23:13:10;-2.10;99.90
2767;DHT22;1391;46.742;11.636;2022-12-07T23:15:55;-2.10;99.90
2767;DHT22;1391;46.742;11.636;2022-12-07T23:18:23;-2.00;99.90
2767;DHT22;1391;46.742;11.636;2022-12-07T23:20:50;-2.40;99.90
2767;DHT22;1391;46.742;11.636;2022-12-07T23:23:19;-2.10;99.90
2767;DHT22;1391;46.742;11.636;2022-12-07T23:25:46;-2.10;99.90
2767;DHT22;1391;46.742;11.636;2022-12-07T23:28:13;-2.10;99.90
2767;DHT22;1391;46.742;11.636;2022-12-07T23:30:40;-2.00;99.90
2767;DHT22;1391;46.742;11.636;2022-12-07T23:33:08;-2.60;99.90
2767;DHT22;1391;46.742;11.636;2022-12-07T23:35:35;-2.30;99.90
2767;DHT22;1391;46.742;11.636;2022-12-07T23:38:03;-2.40;99.90
2767;DHT22;1391;46.742;11.636;2022-12-07T23:40:32;-2.70;99.90
2767;DHT22;1391;46.742;11.636;2022-12-07T23:42:59;-2.60;99.90
2767;DHT22;1391;46.742;11.636;2022-12-07T23:45:26;-2.30;99.90
2767;DHT22;1391;46.742;11.636;2022-12-07T23:47:54;-2.50;99.90
2767;DHT22;1391;46.742;11.636;2022-12-07T23:50:21;-2.50;99.90
2767;DHT22;1391;46.742;11.636;2022-12-07T23:52:48;-2.30;99.90
2767;DHT22;1391;46.742;11.636;2022-12-07T23:55:15;-2.30;99.90
2767;DHT22;1391;46.742;11.636;2022-12-07T23:57:44;-2.30;99.90
